Flight Track Log - Related Links

Times and Time Zones

All times are in EDT time to prevent confusion due to time zone crossing. See the ASA55 flight status page for this flight to view local times or setup timezone preferences in your user account.

Time Position Orientation Groundspeed Altitude Reporting Facility
EDT Latitude Longitude Course Direction KTS MPH feet Rate Location/Type
Mon 03:23:00 PM 70.4716 -155.9680 162° South  Level Estimated
Mon 03:24:00 PM 70.3697 -155.8724 163° South  Level Estimated
Mon 03:25:00 PM 70.2677 -155.7778 163° South  Level Estimated
Mon 03:26:00 PM 70.1657 -155.6841 163° South  Level Estimated
Mon 03:27:00 PM 70.0637 -155.5913 163° South  Level Estimated
Mon 03:27:07 PM 70.3667 -155.9500 163° South 430 495 24,600  Level Anchorage Center
Mon 03:28:00 PM 69.9616 -155.4995 163° South  Level Estimated
Mon 03:28:07 PM 70.2500 -155.8333 161° South 440 506 26,200  Level Anchorage Center
Mon 03:29:00 PM 69.8595 -155.4085 163° South  Level Estimated
Mon 03:29:08 PM 70.1333 -155.7333 164° South 450 518 27,600  Level Anchorage Center
Mon 03:30:00 PM 69.7573 -155.3184 163° South  Level Estimated
Mon 03:30:08 PM 70.0167 -155.6333 164° South 440 506 29,400  Level Anchorage Center
Mon 03:31:00 PM 69.6550 -155.2292 163° South  Level Estimated
Mon 03:31:07 PM 69.9000 -155.5167 161° South 450 518 31,000  Level Anchorage Center
Mon 03:32:00 PM 69.5528 -155.1408 163° South  Level Estimated
Mon 03:32:08 PM 69.7667 -155.4167 165° South 450 518 31,000  Level Anchorage Center
Mon 03:33:08 PM 69.6500 -155.3167 163° South 460 529 31,000  Level Anchorage Center
Mon 03:34:08 PM 69.5333 -155.2167 163° South 430 495 31,000  Level Anchorage Center
Mon 03:35:08 PM 69.4167 -155.1167 163° South 450 518 31,000  Level Anchorage Center
Mon 03:36:08 PM 69.3000 -155.0167 163° South 450 518 31,000  Level Anchorage Center
Mon 03:37:09 PM 69.1667 -154.9333 167° South 450 518 31,000  Level Anchorage Center
Mon 03:38:08 PM 69.0500 -154.8167 160° South 450 518 31,000  Level Anchorage Center
Mon 03:39:09 PM 68.9333 -154.7333 166° South 450 518 31,000  Level Anchorage Center
Mon 03:40:09 PM 68.8167 -154.6333 163° South 450 518 31,000  Level Anchorage Center
Mon 03:41:09 PM 68.7000 -154.5500 165° South 450 518 31,000  Level Anchorage Center
Mon 03:42:09 PM 68.5667 -154.4500 165° South 450 518 31,000  Level Anchorage Center
Mon 03:43:09 PM 68.4500 -154.3667 165° South 450 518 31,000  Level Anchorage Center
Mon 03:44:09 PM 68.3333 -154.2667 162° South 450 518 31,000  Level Anchorage Center
Mon 03:45:09 PM 68.2167 -154.1833 165° South 450 518 31,000  Level Anchorage Center
Mon 03:46:09 PM 68.1000 -154.1000 165° South 450 518 31,000  Level Anchorage Center
Mon 03:47:09 PM 67.9667 -154.0000 164° South 450 518 31,000  Level Anchorage Center
Mon 03:48:09 PM 67.8500 -153.9167 165° South 450 518 31,000  Level Anchorage Center
Mon 03:49:09 PM 67.7333 -153.8333 165° South 440 506 31,000  Level Anchorage Center
Mon 03:50:09 PM 67.6167 -153.7500 165° South 450 518 31,000  Level Anchorage Center
Mon 03:51:09 PM 67.5000 -153.6667 165° South 440 506 31,000  Level Anchorage Center
Mon 03:52:09 PM 67.3667 -153.5833 166° South 440 506 31,000  Level Anchorage Center
Mon 03:53:10 PM 67.2500 -153.5000 165° South 450 518 31,000  Level Anchorage Center
Mon 03:54:10 PM 67.1333 -153.4167 164° South 440 506 31,000  Level Anchorage Center
Mon 03:55:10 PM 67.0167 -153.3500 167° South 450 518 31,000  Level Anchorage Center
Mon 03:56:10 PM 66.9000 -153.2667 164° South 450 518 31,000  Level Anchorage Center
Mon 03:57:10 PM 66.7667 -153.1833 166° South 450 518 31,000  Level Anchorage Center
Mon 03:58:10 PM 66.6500 -153.1167 167° South 450 518 31,000  Level Anchorage Center
Mon 03:59:10 PM 66.5333 -153.0333 164° South 440 506 31,000  Level Anchorage Center
Mon 04:00:10 PM 66.4000 -152.9500 166° South 450 518 31,000  Level Anchorage Center
Mon 04:01:10 PM 66.2833 -152.8833 167° South 450 518 31,000  Level Anchorage Center
Mon 04:02:11 PM 66.1667 -152.8000 164° South 450 518 31,000  Level Anchorage Center
Mon 04:03:11 PM 66.0333 -152.7333 169° South 450 518 31,000  Level Anchorage Center
Mon 04:04:11 PM 65.9167 -152.6500 164° South 450 518 31,000  Level Anchorage Center
Mon 04:05:11 PM 65.8000 -152.5833 167° South 450 518 31,000  Level Anchorage Center
Mon 04:06:11 PM 65.6667 -152.5000 166° South 450 518 31,000  Level Anchorage Center
Mon 04:07:11 PM 65.5500 -152.4333 167° South 450 518 31,000  Level Anchorage Center
Mon 04:08:11 PM 65.4333 -152.3667 167° South 450 518 31,000  Level Anchorage Center
Mon 04:09:11 PM 65.3000 -152.2833 165° South 450 518 31,000  Level Anchorage Center
Mon 04:10:12 PM 65.1833 -152.2167 167° South 440 506 31,000  Level Anchorage Center
Mon 04:11:11 PM 65.0833 -152.1667 168° South 450 518 31,000  Level Anchorage Center
Mon 04:12:12 PM 64.9667 -152.1000 166° South 440 506 31,000  Level Anchorage Center
Mon 04:13:12 PM 64.8500 -152.0333 166° South 450 518 31,000  Level Anchorage Center
Mon 04:14:12 PM 64.7167 -151.9667 168° South 440 506 31,000  Level Anchorage Center
Mon 04:15:12 PM 64.6000 -151.9000 166° South 440 506 31,000  Level Anchorage Center
Mon 04:16:12 PM 64.4833 -151.8333 166° South 440 506 31,000  Level Anchorage Center
Mon 04:17:12 PM 64.3500 -151.7667 168° South 440 506 31,000  Level Anchorage Center
Mon 04:18:12 PM 64.2333 -151.7000 166° South 440 506 31,000  Level Anchorage Center
Mon 04:19:12 PM 64.1167 -151.6333 166° South 450 518 31,000  Level Anchorage Center
Mon 04:20:12 PM 64.0000 -151.5833 169° South 440 506 31,000  Level Anchorage Center
Mon 04:21:13 PM 63.8833 -151.5167 166° South 440 506 31,000  Level Anchorage Center
Mon 04:22:12 PM 63.7667 -151.4500 166° South 440 506 31,000  Level Anchorage Center
Mon 04:23:12 PM 63.6333 -151.4000 171° South 440 506 31,000  Level Anchorage Center
Mon 04:24:13 PM 63.5167 -151.3333 166° South 440 506 31,000  Level Anchorage Center
Mon 04:25:13 PM 63.4000 -151.2833 169° South 440 506 31,000  Level Anchorage Center
Mon 04:26:13 PM 63.2833 -151.2000 162° South 430 495 31,000  Level Anchorage Center
Mon 04:27:13 PM 63.1667 -151.1500 169° South 430 495 31,000  Level Anchorage Center
Mon 04:28:13 PM 63.0500 -151.0833 165° South 440 506 31,000  Level Anchorage Center
Mon 04:29:13 PM 62.9333 -151.0333 169° South 430 495 31,000  Level Anchorage Center
Mon 04:30:13 PM 62.8167 -150.9833 169° South 420 483 31,000  Level Anchorage Center
Mon 04:31:13 PM 62.6833 -150.9167 167° South 430 495 31,000  Level Anchorage Center
Mon 04:32:14 PM 62.5667 -150.8667 169° South 420 483 31,000 -1,537 Level Anchorage Center
Mon 04:33:14 PM 62.4500 -150.8167 169° South 420 483 27,900 -3,328 Descending Anchorage Center
Mon 04:34:13 PM 62.3333 -150.7500 165° South 440 506 24,400 -3,200 Descending Anchorage Center
Mon 04:35:14 PM 62.2167 -150.7000 169° South 420 483 21,500 -2,826 Descending Anchorage Center
Mon 04:36:14 PM 62.1167 -150.6500 167° South 400 460 18,700 -2,500 Descending Anchorage Center
Mon 04:37:14 PM 62.0167 -150.6167 171° South 390 449 16,500 -2,600 Descending Anchorage Center
Mon 04:38:14 PM 61.9000 -150.5667 169° South 380 437 13,500 -3,000 Descending Anchorage Center
Mon 04:40:00 PM 61.7132 -150.4667 180° South  Level FlightAware Approximate
Mon 04:47:00 PM 61.1741 -149.9982 270° West  Level Estimated
Mon 04:48:00 PM 61.1741 -149.9982 270° West  Level Estimated
Mon 04:49:00 PM 61.1741 -149.9982 270° West  Level Estimated
Mon 04:50:00 PM 61.1741 -149.9982 270° West  Level Estimated
Mon 04:51:00 PM 61.1741 -149.9982 270° West  Level Estimated
Mon 04:52:00 PM 61.1741 -149.9982 270° West  Level Estimated
Mon 04:53:00 PM 61.1741 -149.9982 270° West  Level Estimated
Mon 04:54:00 PM 61.1741 -149.9982 270° West  Level Estimated
Mon 04:55:00 PM 61.1741 -149.9982 270° West  Level Estimated
Mon 04:56:00 PM 61.1741 -149.9982 270° West  Level Estimated
Mon 04:57:00 PM 61.1741 -149.9982 270° West  Level Estimated

Login

Don't have an account? Register now (free) for customized features, flight alerts, and more!